sensor_id;sensor_type;location;lat;lon;timestamp;pressure;altitude;pressure_sealevel;temperature;humidity
41040;BME280;48586;50.122;18.972;2023-04-25T00:01:59;97440.59;;;11.38;66.92
41040;BME280;48586;50.122;18.972;2023-04-25T00:04:08;97438.72;;;11.38;67.03
41040;BME280;48586;50.122;18.972;2023-04-25T00:06:12;97441.38;;;11.38;67.23
41040;BME280;48586;50.122;18.972;2023-04-25T00:08:18;97444.03;;;11.33;66.57
41040;BME280;48586;50.122;18.972;2023-04-25T00:10:24;97442.16;;;11.29;66.98
41040;BME280;48586;50.122;18.972;2023-04-25T00:12:28;97447.50;;;11.29;67.14
41040;BME280;48586;50.122;18.972;2023-04-25T00:14:34;97451.25;;;11.28;67.05
41040;BME280;48586;50.122;18.972;2023-04-25T00:16:40;97441.59;;;11.21;67.07
41040;BME280;48586;50.122;18.972;2023-04-25T00:18:45;97453.59;;;11.19;67.30
41040;BME280;48586;50.122;18.972;2023-04-25T00:20:56;97448.53;;;11.17;67.39
41040;BME280;48586;50.122;18.972;2023-04-25T00:23:01;97450.63;;;11.10;67.67
41040;BME280;48586;50.122;18.972;2023-04-25T00:25:07;97446.91;;;11.11;68.06
41040;BME280;48586;50.122;18.972;2023-04-25T00:27:12;97449.56;;;11.11;67.99
41040;BME280;48586;50.122;18.972;2023-04-25T00:29:19;97451.16;;;11.12;68.21
41040;BME280;48586;50.122;18.972;2023-04-25T00:31:23;97449.28;;;11.03;67.78
41040;BME280;48586;50.122;18.972;2023-04-25T00:33:29;97442.06;;;10.98;68.36
41040;BME280;48586;50.122;18.972;2023-04-25T00:35:34;97448.69;;;10.95;68.38
41040;BME280;48586;50.122;18.972;2023-04-25T00:37:43;97446.81;;;10.91;68.68
41040;BME280;48586;50.122;18.972;2023-04-25T00:39:47;97452.69;;;10.93;68.96
41040;BME280;48586;50.122;18.972;2023-04-25T00:41:54;97453.75;;;10.92;68.70
41040;BME280;48586;50.122;18.972;2023-04-25T00:44:01;97456.94;;;10.89;68.90
41040;BME280;48586;50.122;18.972;2023-04-25T00:46:07;97452.63;;;10.83;69.43
41040;BME280;48586;50.122;18.972;2023-04-25T00:48:14;97458.25;;;10.81;69.31
41040;BME280;48586;50.122;18.972;2023-04-25T00:50:20;97455.81;;;10.80;69.55
41040;BME280;48586;50.122;18.972;2023-04-25T00:52:25;97454.22;;;10.79;68.74
41040;BME280;48586;50.122;18.972;2023-04-25T00:54:33;97455.78;;;10.74;68.87
41040;BME280;48586;50.122;18.972;2023-04-25T00:56:39;97444.91;;;10.76;68.83
41040;BME280;48586;50.122;18.972;2023-04-25T00:58:48;97453.41;;;10.78;68.56
41040;BME280;48586;50.122;18.972;2023-04-25T01:00:58;97446.78;;;10.81;68.50
41040;BME280;48586;50.122;18.972;2023-04-25T01:03:03;97445.44;;;10.83;67.86
41040;BME280;48586;50.122;18.972;2023-04-25T01:05:09;97439.88;;;10.85;67.72
41040;BME280;48586;50.122;18.972;2023-04-25T01:07:15;97445.72;;;10.87;67.10
41040;BME280;48586;50.122;18.972;2023-04-25T01:09:22;97448.13;;;10.88;66.47
41040;BME280;48586;50.122;18.972;2023-04-25T01:11:29;97456.13;;;10.88;66.37
41040;BME280;48586;50.122;18.972;2023-04-25T01:13:36;97445.72;;;10.87;66.44
41040;BME280;48586;50.122;18.972;2023-04-25T01:15:41;97446.78;;;10.81;66.16
41040;BME280;48586;50.122;18.972;2023-04-25T01:17:46;97453.13;;;10.74;65.16
41040;BME280;48586;50.122;18.972;2023-04-25T01:19:51;97457.38;;;10.75;65.62
41040;BME280;48586;50.122;18.972;2023-04-25T01:21:59;97459.50;;;10.68;65.39
41040;BME280;48586;50.122;18.972;2023-04-25T01:24:07;97465.06;;;10.67;64.70
41040;BME280;48586;50.122;18.972;2023-04-25T01:26:12;97467.72;;;10.62;64.44
41040;BME280;48586;50.122;18.972;2023-04-25T01:28:19;97463.16;;;10.57;64.22
41040;BME280;48586;50.122;18.972;2023-04-25T01:30:25;97470.59;;;10.55;63.68
41040;BME280;48586;50.122;18.972;2023-04-25T01:32:33;97471.31;;;10.45;62.01
41040;BME280;48586;50.122;18.972;2023-04-25T01:34:40;97470.78;;;10.43;62.62
41040;BME280;48586;50.122;18.972;2023-04-25T01:36:47;97472.03;;;10.36;61.72
41040;BME280;48586;50.122;18.972;2023-04-25T01:38:57;97469.63;;;10.34;61.88
41040;BME280;48586;50.122;18.972;2023-04-25T01:41:03;97475.47;;;10.31;61.40
41040;BME280;48586;50.122;18.972;2023-04-25T01:43:08;97470.41;;;10.30;61.78
41040;BME280;48586;50.122;18.972;2023-04-25T01:45:17;97470.13;;;10.31;61.94
41040;BME280;48586;50.122;18.972;2023-04-25T01:47:23;97472.81;;;10.31;62.02
41040;BME280;48586;50.122;18.972;2023-04-25T01:49:29;97471.75;;;10.32;62.38
41040;BME280;48586;50.122;18.972;2023-04-25T01:51:35;97471.50;;;10.34;62.49
41040;BME280;48586;50.122;18.972;2023-04-25T01:53:42;97474.66;;;10.31;62.02
41040;BME280;48586;50.122;18.972;2023-04-25T01:55:52;97476.22;;;10.26;61.84
41040;BME280;48586;50.122;18.972;2023-04-25T01:58:01;97481.03;;;10.24;62.02
41040;BME280;48586;50.122;18.972;2023-04-25T02:00:43;97482.88;;;10.24;62.11
41040;BME280;48586;50.122;18.972;2023-04-25T02:02:47;97484.19;;;10.21;62.02
41040;BME280;48586;50.122;18.972;2023-04-25T02:05:01;97481.53;;;10.21;62.45
41040;BME280;48586;50.122;18.972;2023-04-25T02:07:08;97487.88;;;10.15;62.79
41040;BME280;48586;50.122;18.972;2023-04-25T02:09:25;97489.97;;;10.13;63.71
41040;BME280;48586;50.122;18.972;2023-04-25T02:11:35;97491.25;;;10.11;64.26
41040;BME280;48586;50.122;18.972;2023-04-25T02:13:56;97486.16;;;10.04;63.92
41040;BME280;48586;50.122;18.972;2023-04-25T02:16:13;97490.09;;;9.96;63.93
41040;BME280;48586;50.122;18.972;2023-04-25T02:18:18;97495.38;;;9.91;63.94
41040;BME280;48586;50.122;18.972;2023-04-25T02:20:24;97491.34;;;9.89;63.88
41040;BME280;48586;50.122;18.972;2023-04-25T02:22:28;97492.34;;;9.83;63.94
41040;BME280;48586;50.122;18.972;2023-04-25T02:24:35;97490.72;;;9.77;64.68
41040;BME280;48586;50.122;18.972;2023-04-25T02:26:42;97498.13;;;9.74;64.37
41040;BME280;48586;50.122;18.972;2023-04-25T02:28:48;97498.63;;;9.71;65.14
41040;BME280;48586;50.122;18.972;2023-04-25T02:30:54;97492.41;;;9.61;64.21
41040;BME280;48586;50.122;18.972;2023-04-25T02:32:59;97494.72;;;9.52;64.26
41040;BME280;48586;50.122;18.972;2023-04-25T02:35:04;97495.69;;;9.46;64.91
41040;BME280;48586;50.122;18.972;2023-04-25T02:37:10;97488.47;;;9.41;65.28
41040;BME280;48586;50.122;18.972;2023-04-25T02:39:14;97496.69;;;9.40;65.02
41040;BME280;48586;50.122;18.972;2023-04-25T02:41:18;97493.50;;;9.38;64.39
41040;BME280;48586;50.122;18.972;2023-04-25T02:43:25;97500.09;;;9.35;64.98
41040;BME280;48586;50.122;18.972;2023-04-25T02:45:30;97501.41;;;9.33;64.72
41040;BME280;48586;50.122;18.972;2023-04-25T02:47:34;97500.06;;;9.30;64.21
41040;BME280;48586;50.122;18.972;2023-04-25T02:49:39;97508.19;;;9.23;64.17
41040;BME280;48586;50.122;18.972;2023-04-25T02:51:44;97503.88;;;9.17;64.22
41040;BME280;48586;50.122;18.972;2023-04-25T02:53:48;97501.19;;;9.12;64.76
41040;BME280;48586;50.122;18.972;2023-04-25T02:55:53;97498.69;;;9.06;64.08
41040;BME280;48586;50.122;18.972;2023-04-25T02:57:59;97502.31;;;8.99;64.32
41040;BME280;48586;50.122;18.972;2023-04-25T03:00:24;97500.41;;;8.95;64.61
41040;BME280;48586;50.122;18.972;2023-04-25T03:02:29;97501.41;;;8.94;64.96
41040;BME280;48586;50.122;18.972;2023-04-25T03:04:33;97503.59;;;8.97;65.44
41040;BME280;48586;50.122;18.972;2023-04-25T03:06:37;97499.88;;;8.98;64.53
41040;BME280;48586;50.122;18.972;2023-04-25T03:08:42;97499.34;;;8.96;64.34
41040;BME280;48586;50.122;18.972;2023-04-25T03:10:46;97500.94;;;8.97;64.63
41040;BME280;48586;50.122;18.972;2023-04-25T03:12:53;97492.34;;;8.90;63.70
41040;BME280;48586;50.122;18.972;2023-04-25T03:14:58;97492.66;;;8.93;64.07
41040;BME280;48586;50.122;18.972;2023-04-25T03:17:04;97493.44;;;8.94;63.27
41040;BME280;48586;50.122;18.972;2023-04-25T03:19:10;97486.31;;;8.94;63.28
41040;BME280;48586;50.122;18.972;2023-04-25T03:21:17;97493.53;;;8.99;63.38
41040;BME280;48586;50.122;18.972;2023-04-25T03:23:21;97492.84;;;9.04;63.38
41040;BME280;48586;50.122;18.972;2023-04-25T03:25:25;97497.53;;;9.01;62.91
41040;BME280;48586;50.122;18.972;2023-04-25T03:27:30;97492.22;;;9.01;62.83
41040;BME280;48586;50.122;18.972;2023-04-25T03:29:34;97496.03;;;9.06;62.77
41040;BME280;48586;50.122;18.972;2023-04-25T03:31:39;97507.22;;;9.08;62.63
41040;BME280;48586;50.122;18.972;2023-04-25T03:33:47;97505.38;;;9.08;62.08
41040;BME280;48586;50.122;18.972;2023-04-25T03:35:56;97514.38;;;9.07;61.73
41040;BME280;48586;50.122;18.972;2023-04-25T03:38:02;97512.78;;;9.06;61.36
41040;BME280;48586;50.122;18.972;2023-04-25T03:40:12;97515.44;;;9.06;61.38
41040;BME280;48586;50.122;18.972;2023-04-25T03:42:39;97519.06;;;9.00;61.20
41040;BME280;48586;50.122;18.972;2023-04-25T03:44:44;97521.72;;;9.00;61.37
41040;BME280;48586;50.122;18.972;2023-04-25T03:46:49;97515.59;;;8.99;61.45
41040;BME280;48586;50.122;18.972;2023-04-25T03:48:56;97514.28;;;9.02;61.59
41040;BME280;48586;50.122;18.972;2023-04-25T03:51:11;97517.28;;;9.06;61.57
41040;BME280;48586;50.122;18.972;2023-04-25T03:53:20;97527.75;;;9.12;61.57
41040;BME280;48586;50.122;18.972;2023-04-25T03:55:52;97527.22;;;9.15;61.25
41040;BME280;48586;50.122;18.972;2023-04-25T03:57:57;97532.81;;;9.14;60.78
41040;BME280;48586;50.122;18.972;2023-04-25T04:00:03;97533.34;;;9.16;60.86
41040;BME280;48586;50.122;18.972;2023-04-25T04:02:15;97523.22;;;9.13;60.56
41040;BME280;48586;50.122;18.972;2023-04-25T04:04:22;97529.88;;;9.15;60.83
41040;BME280;48586;50.122;18.972;2023-04-25T04:06:30;97538.44;;;9.17;60.93
41040;BME280;48586;50.122;18.972;2023-04-25T04:08:42;97529.97;;;9.20;60.70
41040;BME280;48586;50.122;18.972;2023-04-25T04:10:46;97537.69;;;9.22;60.35
41040;BME280;48586;50.122;18.972;2023-04-25T04:12:51;97538.50;;;9.22;59.84
41040;BME280;48586;50.122;18.972;2023-04-25T04:14:55;97538.00;;;9.25;60.13
41040;BME280;48586;50.122;18.972;2023-04-25T04:16:59;97542.75;;;9.23;60.21
41040;BME280;48586;50.122;18.972;2023-04-25T04:19:04;97542.19;;;9.21;60.06
41040;BME280;48586;50.122;18.972;2023-04-25T04:21:11;97535.84;;;9.22;60.07
41040;BME280;48586;50.122;18.972;2023-04-25T04:23:16;97541.69;;;9.24;59.98
41040;BME280;48586;50.122;18.972;2023-04-25T04:25:21;97543.88;;;9.28;60.03
41040;BME280;48586;50.122;18.972;2023-04-25T04:27:47;97545.41;;;9.23;59.69
41040;BME280;48586;50.122;18.972;2023-04-25T04:30:08;97547.56;;;9.27;59.87
41040;BME280;48586;50.122;18.972;2023-04-25T04:32:25;97544.44;;;9.30;59.28
41040;BME280;48586;50.122;18.972;2023-04-25T04:34:31;97547.16;;;9.35;59.43
41040;BME280;48586;50.122;18.972;2023-04-25T04:36:38;97545.84;;;9.37;59.62
41040;BME280;48586;50.122;18.972;2023-04-25T04:38:45;97548.25;;;9.39;60.37
41040;BME280;48586;50.122;18.972;2023-04-25T04:40:58;97550.72;;;9.45;59.85
41040;BME280;48586;50.122;18.972;2023-04-25T04:43:29;97548.16;;;9.50;59.44
41040;BME280;48586;50.122;18.972;2023-04-25T04:45:58;97546.28;;;9.51;58.69
41040;BME280;48586;50.122;18.972;2023-04-25T04:48:22;97539.84;;;9.47;58.40
41040;BME280;48586;50.122;18.972;2023-04-25T04:50:35;97542.81;;;9.50;59.18
41040;BME280;48586;50.122;18.972;2023-04-25T04:53:03;97541.25;;;9.55;59.34
41040;BME280;48586;50.122;18.972;2023-04-25T04:55:19;97541.03;;;9.56;58.26
41040;BME280;48586;50.122;18.972;2023-04-25T04:57:38;97541.03;;;9.56;57.87
41040;BME280;48586;50.122;18.972;2023-04-25T05:00:22;97538.41;;;9.61;58.75
41040;BME280;48586;50.122;18.972;2023-04-25T05:02:45;97538.94;;;9.63;57.88
41040;BME280;48586;50.122;18.972;2023-04-25T05:05:06;97545.38;;;9.67;57.58
41040;BME280;48586;50.122;18.972;2023-04-25T05:07:35;97542.66;;;9.62;58.06
41040;BME280;48586;50.122;18.972;2023-04-25T05:09:46;97545.09;;;9.64;58.59
41040;BME280;48586;50.122;18.972;2023-04-25T05:12:10;97547.25;;;9.67;58.90
41040;BME280;48586;50.122;18.972;2023-04-25T05:14:27;97535.63;;;9.73;58.23
41040;BME280;48586;50.122;18.972;2023-04-25T05:16:50;97540.19;;;9.78;57.11
41040;BME280;48586;50.122;18.972;2023-04-25T05:19:11;97546.94;;;9.85;58.21
41040;BME280;48586;50.122;18.972;2023-04-25T05:21:26;97544.31;;;9.90;57.64
41040;BME280;48586;50.122;18.972;2023-04-25T05:23:51;97541.44;;;9.97;57.05
41040;BME280;48586;50.122;18.972;2023-04-25T05:26:22;97539.47;;;10.14;57.39
41040;BME280;48586;50.122;18.972;2023-04-25T05:28:35;97540.38;;;10.25;56.29
41040;BME280;48586;50.122;18.972;2023-04-25T05:30:56;97539.63;;;10.30;55.28
41040;BME280;48586;50.122;18.972;2023-04-25T05:33:12;97538.28;;;10.32;55.61
41040;BME280;48586;50.122;18.972;2023-04-25T05:35:18;97540.44;;;10.35;54.89
41040;BME280;48586;50.122;18.972;2023-04-25T05:37:24;97540.72;;;10.34;54.99
41040;BME280;48586;50.122;18.972;2023-04-25T05:39:41;97538.06;;;10.34;54.24
41040;BME280;48586;50.122;18.972;2023-04-25T05:41:54;97540.19;;;10.37;54.83
41040;BME280;48586;50.122;18.972;2023-04-25T05:44:17;97542.19;;;10.46;55.04
41040;BME280;48586;50.122;18.972;2023-04-25T05:46:35;97549.41;;;10.51;54.71
41040;BME280;48586;50.122;18.972;2023-04-25T05:48:56;97550.97;;;10.47;54.37
41040;BME280;48586;50.122;18.972;2023-04-25T05:51:30;97546.72;;;10.51;54.24
41040;BME280;48586;50.122;18.972;2023-04-25T05:54:01;97551.06;;;10.62;55.17
41040;BME280;48586;50.122;18.972;2023-04-25T05:56:08;97544.78;;;10.79;54.11
41040;BME280;48586;50.122;18.972;2023-04-25T05:58:15;97549.44;;;10.98;54.23
41040;BME280;48586;50.122;18.972;2023-04-25T06:00:20;97546.06;;;11.13;53.16
41040;BME280;48586;50.122;18.972;2023-04-25T06:02:26;97546.13;;;11.23;52.03
41040;BME280;48586;50.122;18.972;2023-04-25T06:04:31;97549.09;;;11.32;52.27
41040;BME280;48586;50.122;18.972;2023-04-25T06:06:37;97549.91;;;11.38;51.12
41040;BME280;48586;50.122;18.972;2023-04-25T06:08:41;97549.91;;;11.33;50.18
41040;BME280;48586;50.122;18.972;2023-04-25T06:10:46;97545.88;;;11.30;50.37
41040;BME280;48586;50.122;18.972;2023-04-25T06:12:52;97556.53;;;11.30;50.35
41040;BME280;48586;50.122;18.972;2023-04-25T06:15:01;97560.97;;;11.09;49.18
41040;BME280;48586;50.122;18.972;2023-04-25T06:17:06;97562.28;;;11.07;50.62
41040;BME280;48586;50.122;18.972;2023-04-25T06:19:11;97558.84;;;11.11;50.60
41040;BME280;48586;50.122;18.972;2023-04-25T06:21:16;97563.13;;;11.17;50.39
41040;BME280;48586;50.122;18.972;2023-04-25T06:23:25;97567.47;;;11.29;50.87
41040;BME280;48586;50.122;18.972;2023-04-25T06:25:38;97558.19;;;11.41;51.57
41040;BME280;48586;50.122;18.972;2023-04-25T06:27:44;97562.78;;;11.56;50.94
41040;BME280;48586;50.122;18.972;2023-04-25T06:29:49;97565.47;;;11.66;50.34
41040;BME280;48586;50.122;18.972;2023-04-25T06:31:58;97561.81;;;11.78;50.38
41040;BME280;48586;50.122;18.972;2023-04-25T06:34:02;97563.44;;;11.89;50.33
41040;BME280;48586;50.122;18.972;2023-04-25T06:36:11;97563.97;;;11.96;49.37
41040;BME280;48586;50.122;18.972;2023-04-25T06:38:19;97557.06;;;12.05;49.40
41040;BME280;48586;50.122;18.972;2023-04-25T06:40:26;97560.28;;;12.12;48.62
41040;BME280;48586;50.122;18.972;2023-04-25T06:42:31;97564.59;;;12.18;48.73
41040;BME280;48586;50.122;18.972;2023-04-25T06:44:57;97566.97;;;12.25;47.89
41040;BME280;48586;50.122;18.972;2023-04-25T06:47:06;97565.38;;;12.29;48.00
41040;BME280;48586;50.122;18.972;2023-04-25T06:49:12;97559.75;;;12.31;48.26
41040;BME280;48586;50.122;18.972;2023-04-25T06:51:17;97566.44;;;12.38;47.66
41040;BME280;48586;50.122;18.972;2023-04-25T06:53:24;97565.66;;;12.48;48.46
41040;BME280;48586;50.122;18.972;2023-04-25T06:55:34;97559.78;;;12.56;47.53
41040;BME280;48586;50.122;18.972;2023-04-25T06:57:59;97564.56;;;12.64;47.04
41040;BME280;48586;50.122;18.972;2023-04-25T07:00:24;97554.69;;;12.75;47.22
41040;BME280;48586;50.122;18.972;2023-04-25T07:02:32;97558.66;;;12.83;47.16
41040;BME280;48586;50.122;18.972;2023-04-25T07:04:40;97561.91;;;12.90;45.92
41040;BME280;48586;50.122;18.972;2023-04-25T07:06:46;97551.22;;;12.95;45.01
41040;BME280;48586;50.122;18.972;2023-04-25T07:08:55;97553.38;;;12.88;45.29
41040;BME280;48586;50.122;18.972;2023-04-25T07:11:01;97563.78;;;12.79;45.89
41040;BME280;48586;50.122;18.972;2023-04-25T07:13:05;97561.91;;;12.80;46.77
41040;BME280;48586;50.122;18.972;2023-04-25T07:15:10;97559.53;;;12.88;45.87
41040;BME280;48586;50.122;18.972;2023-04-25T07:17:20;97555.25;;;12.92;45.79
41040;BME280;48586;50.122;18.972;2023-04-25T07:19:28;97558.97;;;13.02;46.36
41040;BME280;48586;50.122;18.972;2023-04-25T07:21:36;97553.56;;;13.12;45.82
41040;BME280;48586;50.122;18.972;2023-04-25T07:23:42;97554.91;;;13.19;45.26
41040;BME280;48586;50.122;18.972;2023-04-25T07:25:52;97556.47;;;13.31;45.29
41040;BME280;48586;50.122;18.972;2023-04-25T07:27:59;97555.63;;;13.40;44.85
41040;BME280;48586;50.122;18.972;2023-04-25T07:30:05;97556.13;;;13.47;44.36
41040;BME280;48586;50.122;18.972;2023-04-25T07:32:14;97562.03;;;13.44;43.69
41040;BME280;48586;50.122;18.972;2023-04-25T07:34:19;97562.84;;;13.45;44.45
41040;BME280;48586;50.122;18.972;2023-04-25T07:36:27;97555.63;;;13.40;44.08
41040;BME280;48586;50.122;18.972;2023-04-25T07:38:32;97554.53;;;13.46;44.10
41040;BME280;48586;50.122;18.972;2023-04-25T07:40:37;97558.25;;;13.50;43.83
41040;BME280;48586;50.122;18.972;2023-04-25T07:42:45;97555.91;;;13.44;43.25
41040;BME280;48586;50.122;18.972;2023-04-25T07:44:55;97552.69;;;13.37;43.43
41040;BME280;48586;50.122;18.972;2023-04-25T07:46:59;97561.25;;;13.34;43.59
41040;BME280;48586;50.122;18.972;2023-04-25T07:49:07;97557.00;;;13.33;43.66
41040;BME280;48586;50.122;18.972;2023-04-25T07:51:14;97554.75;;;13.55;44.59
41040;BME280;48586;50.122;18.972;2023-04-25T07:53:24;97556.25;;;13.76;43.29
41040;BME280;48586;50.122;18.972;2023-04-25T07:55:35;97557.28;;;13.96;43.36
41040;BME280;48586;50.122;18.972;2023-04-25T07:57:50;97554.00;;;14.04;41.77
41040;BME280;48586;50.122;18.972;2023-04-25T07:59:55;97554.59;;;13.96;41.12
41040;BME280;48586;50.122;18.972;2023-04-25T08:02:02;97549.75;;;13.98;41.46
41040;BME280;48586;50.122;18.972;2023-04-25T08:04:08;97557.19;;;14.06;42.47
41040;BME280;48586;50.122;18.972;2023-04-25T08:06:26;97555.94;;;13.88;40.22
41040;BME280;48586;50.122;18.972;2023-04-25T08:08:43;97553.00;;;13.85;41.33
41040;BME280;48586;50.122;18.972;2023-04-25T08:10:52;97554.66;;;13.75;41.05
41040;BME280;48586;50.122;18.972;2023-04-25T08:12:58;97554.69;;;13.70;40.80
41040;BME280;48586;50.122;18.972;2023-04-25T08:15:07;97550.44;;;13.64;41.07
41040;BME280;48586;50.122;18.972;2023-04-25T08:17:15;97548.63;;;13.55;41.36
41040;BME280;48586;50.122;18.972;2023-04-25T08:19:21;97550.44;;;13.64;43.09
41040;BME280;48586;50.122;18.972;2023-04-25T08:21:27;97552.97;;;13.90;42.98
41040;BME280;48586;50.122;18.972;2023-04-25T08:23:35;97552.34;;;14.13;41.64
41040;BME280;48586;50.122;18.972;2023-04-25T08:25:59;97543.19;;;14.19;41.09
41040;BME280;48586;50.122;18.972;2023-04-25T08:28:07;97546.91;;;14.23;39.76
41040;BME280;48586;50.122;18.972;2023-04-25T08:30:13;97550.13;;;14.25;40.59
41040;BME280;48586;50.122;18.972;2023-04-25T08:32:18;97555.06;;;14.42;40.92
41040;BME280;48586;50.122;18.972;2023-04-25T08:34:46;97549.50;;;14.68;41.09
41040;BME280;48586;50.122;18.972;2023-04-25T08:36:52;97548.47;;;14.93;40.25
41040;BME280;48586;50.122;18.972;2023-04-25T08:39:13;97540.56;;;15.07;37.92
41040;BME280;48586;50.122;18.972;2023-04-25T08:41:36;97549.56;;;15.21;39.40
41040;BME280;48586;50.122;18.972;2023-04-25T08:43:43;97543.06;;;15.46;39.11
41040;BME280;48586;50.122;18.972;2023-04-25T08:45:47;97551.09;;;15.70;39.14
41040;BME280;48586;50.122;18.972;2023-04-25T08:48:11;97548.78;;;15.82;35.90
41040;BME280;48586;50.122;18.972;2023-04-25T08:50:17;97543.59;;;15.91;37.72
41040;BME280;48586;50.122;18.972;2023-04-25T08:52:28;97542.44;;;15.97;36.46
41040;BME280;48586;50.122;18.972;2023-04-25T08:54:42;97544.78;;;15.80;36.03
41040;BME280;48586;50.122;18.972;2023-04-25T08:56:56;97545.59;;;15.80;36.86
41040;BME280;48586;50.122;18.972;2023-04-25T08:59:03;97559.34;;;15.55;35.12
41040;BME280;48586;50.122;18.972;2023-04-25T09:01:12;97555.34;;;15.28;36.37
41040;BME280;48586;50.122;18.972;2023-04-25T09:03:23;97557.13;;;15.14;35.83
41040;BME280;48586;50.122;18.972;2023-04-25T09:05:28;97557.69;;;14.82;36.24
41040;BME280;48586;50.122;18.972;2023-04-25T09:07:34;97554.84;;;14.73;36.91
41040;BME280;48586;50.122;18.972;2023-04-25T09:09:42;97549.91;;;14.51;36.98
41040;BME280;48586;50.122;18.972;2023-04-25T09:11:46;97555.84;;;14.48;38.09
41040;BME280;48586;50.122;18.972;2023-04-25T09:14:10;97556.50;;;14.64;38.21
41040;BME280;48586;50.122;18.972;2023-04-25T09:16:34;97552.84;;;14.84;37.11
41040;BME280;48586;50.122;18.972;2023-04-25T09:19:06;97563.41;;;15.04;37.38
41040;BME280;48586;50.122;18.972;2023-04-25T09:21:11;97557.31;;;15.22;37.32
41040;BME280;48586;50.122;18.972;2023-04-25T09:23:22;97555.34;;;15.52;38.02
41040;BME280;48586;50.122;18.972;2023-04-25T09:25:34;97554.72;;;15.79;37.05
41040;BME280;48586;50.122;18.972;2023-04-25T09:27:49;97557.09;;;16.05;36.89
41040;BME280;48586;50.122;18.972;2023-04-25T09:30:10;97554.69;;;16.22;35.16
41040;BME280;48586;50.122;18.972;2023-04-25T09:32:36;97548.72;;;16.44;35.37
41040;BME280;48586;50.122;18.972;2023-04-25T09:34:43;97556.69;;;16.49;34.86
41040;BME280;48586;50.122;18.972;2023-04-25T09:36:51;97559.50;;;16.58;35.41
41040;BME280;48586;50.122;18.972;2023-04-25T09:39:18;97559.34;;;16.68;35.02
41040;BME280;48586;50.122;18.972;2023-04-25T09:41:37;97550.81;;;16.80;33.84
41040;BME280;48586;50.122;18.972;2023-04-25T09:43:45;97552.31;;;16.72;33.58
41040;BME280;48586;50.122;18.972;2023-04-25T09:45:54;97560.16;;;16.68;34.03
41040;BME280;48586;50.122;18.972;2023-04-25T09:48:03;97563.31;;;16.70;32.99
41040;BME280;48586;50.122;18.972;2023-04-25T09:50:15;97556.66;;;16.68;32.43
41040;BME280;48586;50.122;18.972;2023-04-25T09:52:31;97558.88;;;16.80;33.52
41040;BME280;48586;50.122;18.972;2023-04-25T09:54:48;97548.47;;;16.92;32.74
41040;BME280;48586;50.122;18.972;2023-04-25T09:57:10;97552.84;;;16.88;31.10
41040;BME280;48586;50.122;18.972;2023-04-25T09:59:20;97559.16;;;16.64;31.94
41040;BME280;48586;50.122;18.972;2023-04-25T10:01:30;97552.44;;;16.29;32.13
41040;BME280;48586;50.122;18.972;2023-04-25T10:03:50;97546.13;;;16.01;32.22
41040;BME280;48586;50.122;18.972;2023-04-25T10:06:20;97539.31;;;15.90;32.14
41040;BME280;48586;50.122;18.972;2023-04-25T10:08:33;97549.78;;;15.91;33.67
41040;BME280;48586;50.122;18.972;2023-04-25T10:10:40;97554.28;;;15.72;31.72
41040;BME280;48586;50.122;18.972;2023-04-25T10:12:48;97551.94;;;15.46;31.30
41040;BME280;48586;50.122;18.972;2023-04-25T10:14:54;97554.84;;;15.26;32.45
41040;BME280;48586;50.122;18.972;2023-04-25T10:17:02;97546.34;;;15.19;31.66
41040;BME280;48586;50.122;18.972;2023-04-25T10:19:09;97550.41;;;15.16;33.19
41040;BME280;48586;50.122;18.972;2023-04-25T10:21:16;97546.97;;;15.11;32.44
41040;BME280;48586;50.122;18.972;2023-04-25T10:23:21;97547.88;;;15.01;32.39
41040;BME280;48586;50.122;18.972;2023-04-25T10:25:28;97549.00;;;14.90;33.13
41040;BME280;48586;50.122;18.972;2023-04-25T10:27:35;97546.97;;;14.82;33.24
41040;BME280;48586;50.122;18.972;2023-04-25T10:29:41;97547.44;;;14.89;32.94
41040;BME280;48586;50.122;18.972;2023-04-25T10:31:48;97547.31;;;15.04;33.93
41040;BME280;48586;50.122;18.972;2023-04-25T10:33:56;97537.09;;;15.30;34.02
41040;BME280;48586;50.122;18.972;2023-04-25T10:36:10;97542.50;;;15.49;33.13
41040;BME280;48586;50.122;18.972;2023-04-25T10:38:16;97548.03;;;15.58;33.01
41040;BME280;48586;50.122;18.972;2023-04-25T10:40:23;97543.91;;;15.65;33.43
41040;BME280;48586;50.122;18.972;2023-04-25T10:42:29;97540.81;;;15.77;33.31
41040;BME280;48586;50.122;18.972;2023-04-25T10:44:37;97534.03;;;15.80;31.86
41040;BME280;48586;50.122;18.972;2023-04-25T10:46:45;97534.38;;;15.97;32.51
41040;BME280;48586;50.122;18.972;2023-04-25T10:48:51;97533.28;;;15.98;32.10
41040;BME280;48586;50.122;18.972;2023-04-25T10:51:18;97534.59;;;16.00;31.67
41040;BME280;48586;50.122;18.972;2023-04-25T10:53:25;97543.44;;;15.82;31.16
41040;BME280;48586;50.122;18.972;2023-04-25T10:55:49;97537.84;;;15.55;31.64
41040;BME280;48586;50.122;18.972;2023-04-25T10:57:56;97541.13;;;15.52;32.47
41040;BME280;48586;50.122;18.972;2023-04-25T11:00:07;97539.69;;;15.59;32.73
41040;BME280;48586;50.122;18.972;2023-04-25T11:02:15;97551.00;;;15.56;32.15
41040;BME280;48586;50.122;18.972;2023-04-25T11:04:23;97554.31;;;15.24;31.31
41040;BME280;48586;50.122;18.972;2023-04-25T11:06:42;97553.19;;;15.06;32.96
41040;BME280;48586;50.122;18.972;2023-04-25T11:09:01;97542.59;;;14.91;32.73
41040;BME280;48586;50.122;18.972;2023-04-25T11:11:09;97548.25;;;14.55;33.53
41040;BME280;48586;50.122;18.972;2023-04-25T11:13:13;97553.56;;;14.31;34.15
41040;BME280;48586;50.122;18.972;2023-04-25T11:15:20;97539.41;;;14.25;35.08
41040;BME280;48586;50.122;18.972;2023-04-25T11:17:25;97540.63;;;14.38;34.91
41040;BME280;48586;50.122;18.972;2023-04-25T11:19:31;97544.19;;;14.63;35.10
41040;BME280;48586;50.122;18.972;2023-04-25T11:21:38;97557.78;;;14.71;32.75
41040;BME280;48586;50.122;18.972;2023-04-25T11:23:46;97547.59;;;14.73;32.60